FZMP weather

Kimano Ii Airport
Kimano Ii, Maniema Province, Congo (Kinshasa)

Public forecast

Using degrees Celsius for public forecast. Weather courtesy of forecast.io.

METAR (pilot weather report)

Report is more than 6 hours old.

Closest report is Kigoma Airport, 84.6 nm (156.7 km) ESE. Retrieved 2019/05/25 16:00 UTC (18 hours ago):

HTKA 251600Z 00000KT 9999 FEW023 FEW024CB 26/19 Q1016

TAF (pilot weather forecast)

Forecast is more than 12 hours old.

Closest forecast is Kigoma Airport, 84.6 nm (156.7 km) ESE. Retrieved 2019/04/07 12:27 UTC (2 months ago):

TAF HTKA 071120Z 0712/0812 12013KT 9999 FEW026 FEW027CB BECMG 0714/0716 00000KT